Del Norte, CO

2:58 AM MDT on September 05, 2015 (GMT -0600)
North West of | | Change Station
CLOSE
Current Station
Personal Weather Station
Location: MONTE VISTA, CO
Elevation: 7720 ft
Nearby Weather Stations

Elev 7720 ft 37.65 °N, 106.18 °W | Updated 4 seconds ago

Overcast
Overcast
52.2 °F
Feels Like 52.2 °F
N
0.0
Wind Variable Wind from NW
Gusts 0.0 mph

Today
High -- | Low -- °F
--% Chance of Precip.
Yesterday
High -- | Low -- °F
Precip. -- in
6:39 AM 7:29 PM
Waning Gibbous, 50% visible
Pressure 29.91 in
Visibility 10.0 miles
Clouds Few 10000 ft
Dew Point 47 °F
Humidity 82%
Rainfall 0.02 in
Snow Depth Not available.
UV 0 out of 12
Pollen 10.80 out of 12
Air Quality Not available.
Flu Activity Not available.
METAR KALS 050852Z AUTO 18008KT 10SM FEW100 13/09 A3020 RMK AO2 SLP129 T01280094 58004
Pressure 29.91 in
Visibility 10.0 miles
Clouds Few 10000 ft
Dew Point 47 °F
Humidity 82%
Rainfall 0.02 in
Snow Depth Not available.
UV 0 out of 12
Pollen 10.80 out of 12
Air Quality Not available.
Flu Activity Not available.
METAR KALS 050852Z AUTO 18008KT 10SM FEW100 13/09 A3020 RMK AO2 SLP129 T01280094 58004

10-Day Weather Forecast

×

Almanac

Astronomy

Sep. 05, 2015 Rise Set
Actual Time
Civil Twilight
Nautical Twilight
Astronomical Twilight
Moon
Length of Visible Light
Length of Day
Tomorrow will be .
, % of the Moon is Illuminated

Today's Extremes

State Highs State Lows

Community

WunderPhotos

Upload Photos

1,852,440 photos uploaded!

WunderBlogs® & News

Nearby

Air Quality

  Air Quality AQ Index Pollutant
Not available.

Snow Depth

Station Depth Elevation

Earthquake Activity

City Distance Mag. Time & Date
Minimum magnitude displayed is 2.5.

Coastal Water Temperatures

Place Temperature

Stations

Nearby Weather Stations

Station Location Temp. Windchill Dew Point Humidity Wind Precip. Elev Updated Type